Flight Track Log - Related Links

Times and Time Zones

All times are in EDT time to prevent confusion due to time zone crossing. See the N959RP flight status page for this flight to view local times or setup timezone preferences in your user account.


Time Position Orientation Groundspeed Altitude Reporting Facility
EDT Latitude Longitude Course Direction KTS MPH feet Rate Location/Type
Tue 05:39:47 PM 43.0908 -89.2261 101° East 290 334 7,100  Level Chicago Center
Tue 05:40:49 PM 43.0861 -89.0872 93° East 317 365 11,000 1,968 Climbing Chicago Center
Tue 05:41:52 PM 43.0792 -88.9422 94° East 379 436 11,200 1,824 Climbing Chicago Center
Tue 05:42:54 PM 43.0728 -88.7914 93° East 396 456 14,800 2,855 Climbing Chicago Center
Tue 05:43:56 PM 43.0653 -88.6253 93° East 436 502 17,100 1,065 Climbing Chicago Center
Tue 05:44:00 PM 43.0881 -88.6322 96° East  Level FlightAware Approximate
Tue 05:44:58 PM 43.0572 -88.4600 94° East 440 506 17,000  Level Chicago Center
Tue 05:46:00 PM 43.0492 -88.2756 93° East 424 488 17,000  Level Chicago Center
Tue 05:47:02 PM 43.0414 -88.1183 94° East 419 482 17,000  Level Chicago Center
Tue 05:48:04 PM 43.0331 -87.9636 94° East 413 475 17,000 -48 Level Chicago Center
Tue 05:49:06 PM 43.0247 -87.8069 94° East 413 475 16,900 -48 Descending Chicago Center
Tue 05:50:08 PM 43.0150 -87.6244 94° East 414 476 16,900  Level Chicago Center
Tue 05:51:10 PM 43.0072 -87.4706 94° East 409 471 16,900  Level Chicago Center
Tue 05:52:12 PM 42.9983 -87.3164 94° East 411 473 16,900  Level Chicago Center
Tue 05:53:15 PM 42.9894 -87.1625 94° East 408 470 16,900  Level Chicago Center
Tue 05:54:17 PM 42.9803 -87.0050 94° East 415 478 16,900  Level Chicago Center
Tue 05:55:19 PM 42.9703 -86.8494 95° East 414 476 16,900 -726 Level Chicago Center
Tue 05:56:21 PM 42.9589 -86.6661 95° East 410 472 15,400 -1,597 Descending Chicago Center
Tue 05:57:23 PM 42.9492 -86.5117 95° East 410 472 13,600 -1,742 Descending Chicago Center
Tue 05:58:25 PM 42.9386 -86.3608 95° East 403 464 11,800 -1,694 Descending Chicago Center
Tue 05:59:27 PM 42.9294 -86.2158 95° East 391 450 10,100 -1,355 Descending Chicago Center
Tue 06:00:29 PM 42.9328 -86.0939 88° East 325 374 9,000 -1,597 Descending Chicago Center
Tue 06:01:31 PM 42.9478 -85.9592 81° East 307 353 6,800 -1,790 Descending Chicago Center
Tue 06:02:33 PM 42.9614 -85.8522 80° East 296 341 5,300 -1,500 Descending Chicago Center
Tue 06:03:35 PM 42.9769 -85.7494 78° East 286 329 3,700 -1,403 Descending Chicago Center
Tue 06:04:37 PM 42.9903 -85.6508 79° East 276 318 2,400 -624 Descending Chicago Center
Tue 06:05:40 PM 42.9711 -85.5656 107° East 219 252 2,400 -192 Level Chicago Center
Tue 06:06:42 PM 42.9458 -85.5303 134° Southeast 166 191 2,000 -484 Descending Chicago Center
Tue 06:07:44 PM 42.9125 -85.5228 171° South 135 155 1,400 -484 Descending Chicago Center
Tue 06:08:46 PM 42.8853 -85.5175 172° South 125 144 1,000 -387 Descending Chicago Center
Tue 06:10:00 PM 42.8808 -85.5228 109° East  Level Estimated

Login

Don't have an account? Register now (free) for customized features, flight alerts, and more!